createdAt,value
2018-08-31T00:01:33.958Z,5.30
2018-08-31T00:04:42.308Z,5.10
2018-08-31T00:11:39.788Z,4.87
2018-08-31T00:14:10.873Z,5.20
2018-08-31T00:16:40.415Z,4.70
2018-08-31T00:19:09.953Z,4.47
2018-08-31T00:21:45.194Z,5.00
2018-08-31T00:24:25.773Z,4.67
2018-08-31T00:27:06.374Z,3.97
2018-08-31T00:29:55.186Z,4.80
2018-08-31T00:36:50.872Z,4.90
2018-08-31T00:41:36.738Z,4.43
2018-08-31T00:44:30.615Z,4.80
2018-08-31T00:47:00.404Z,4.80
2018-08-31T00:49:30.735Z,4.23
2018-08-31T00:52:01.935Z,4.53
2018-08-31T00:54:31.498Z,4.50
2018-08-31T00:57:01.068Z,4.30
2018-08-31T00:59:32.142Z,4.10
2018-08-31T01:02:01.275Z,4.30
2018-08-31T01:04:30.130Z,4.00
2018-08-31T01:06:59.855Z,4.73
2018-08-31T01:09:30.189Z,4.40
2018-08-31T01:12:10.575Z,4.43
2018-08-31T01:14:41.569Z,4.40
2018-08-31T01:17:10.765Z,4.43
2018-08-31T01:19:40.334Z,4.40
2018-08-31T01:22:11.559Z,4.47
2018-08-31T01:24:41.628Z,4.27
2018-08-31T01:27:11.939Z,4.13
2018-08-31T01:29:43.698Z,4.33
2018-08-31T01:32:12.794Z,4.20
2018-08-31T01:34:43.137Z,4.70
2018-08-31T01:37:13.810Z,4.07
2018-08-31T01:39:43.909Z,4.30
2018-08-31T01:42:13.704Z,4.43
2018-08-31T01:44:44.750Z,4.07
2018-08-31T01:47:15.373Z,4.00
2018-08-31T01:49:46.777Z,4.33
2018-08-31T01:52:16.847Z,4.07
2018-08-31T01:54:45.927Z,3.53
2018-08-31T01:57:16.812Z,3.90
2018-08-31T01:59:49.788Z,3.53
2018-08-31T02:02:23.105Z,4.00
2018-08-31T02:04:54.097Z,3.93
2018-08-31T02:07:23.966Z,3.80
2018-08-31T02:09:54.661Z,3.90
2018-08-31T02:12:24.412Z,3.70
2018-08-31T02:14:54.339Z,4.10
2018-08-31T02:17:23.821Z,3.73
2018-08-31T02:19:54.363Z,3.60
2018-08-31T02:22:24.694Z,3.47
2018-08-31T02:24:53.238Z,3.40
2018-08-31T02:27:23.435Z,3.90
2018-08-31T02:29:54.818Z,3.97
2018-08-31T02:32:25.013Z,3.30
2018-08-31T02:34:54.902Z,3.67
2018-08-31T02:37:25.837Z,3.83
2018-08-31T02:40:00.970Z,4.10
2018-08-31T02:42:31.375Z,3.70
2018-08-31T02:45:01.477Z,3.43
2018-08-31T02:47:31.023Z,3.43
2018-08-31T02:52:56.473Z,3.40
2018-08-31T02:55:26.361Z,3.43
2018-08-31T02:57:58.208Z,3.30
2018-08-31T03:00:26.944Z,3.23
2018-08-31T03:03:00.487Z,3.77
2018-08-31T03:05:30.856Z,3.67
2018-08-31T03:08:01.805Z,3.77
2018-08-31T03:10:31.211Z,3.43
2018-08-31T03:13:18.567Z,3.37
2018-08-31T03:15:49.438Z,3.20
2018-08-31T03:18:18.310Z,3.30
2018-08-31T03:20:48.574Z,3.20
2018-08-31T03:23:18.769Z,3.40
2018-08-31T03:25:49.355Z,3.17
2018-08-31T03:28:19.035Z,3.17
2018-08-31T03:30:48.468Z,3.03
2018-08-31T03:33:17.887Z,3.43
2018-08-31T03:35:47.558Z,3.43
2018-08-31T03:38:16.657Z,3.23
2018-08-31T03:40:50.284Z,3.37
2018-08-31T03:43:27.966Z,3.43
2018-08-31T03:45:56.541Z,3.10
2018-08-31T03:48:26.278Z,3.20
2018-08-31T03:50:56.483Z,3.23
2018-08-31T03:53:26.161Z,3.47
2018-08-31T03:55:57.366Z,3.30
2018-08-31T03:58:27.985Z,3.17
2018-08-31T04:00:59.230Z,3.00
2018-08-31T04:03:29.849Z,3.40
2018-08-31T04:05:58.753Z,3.17
2018-08-31T04:08:29.182Z,3.73
2018-08-31T04:10:58.463Z,3.30
2018-08-31T04:13:37.414Z,3.53
2018-08-31T04:16:07.849Z,3.50
2018-08-31T04:18:39.369Z,3.53
2018-08-31T04:21:09.766Z,3.30
2018-08-31T04:23:45.728Z,3.37
2018-08-31T04:26:15.846Z,3.70
2018-08-31T04:28:47.394Z,3.23
2018-08-31T04:31:18.485Z,3.27
2018-08-31T04:33:49.144Z,4.07
2018-08-31T04:36:20.509Z,3.57
2018-08-31T04:38:50.339Z,3.47
2018-08-31T04:41:19.449Z,3.60
2018-08-31T04:43:49.730Z,3.67
2018-08-31T04:46:20.486Z,3.50
2018-08-31T04:48:50.744Z,3.50
2018-08-31T04:51:20.087Z,3.80
2018-08-31T04:53:54.689Z,3.70
2018-08-31T04:56:24.830Z,3.50
2018-08-31T04:58:53.887Z,3.60
2018-08-31T05:01:23.958Z,3.53
2018-08-31T05:03:56.185Z,4.10
2018-08-31T05:06:25.468Z,3.43
2018-08-31T05:08:55.630Z,3.90
2018-08-31T05:11:25.804Z,3.47
2018-08-31T05:14:02.537Z,3.77
2018-08-31T05:16:32.982Z,3.83
2018-08-31T05:19:03.284Z,3.67
2018-08-31T05:21:32.537Z,3.53
2018-08-31T05:24:04.374Z,3.40
2018-08-31T05:26:34.378Z,3.77
2018-08-31T05:29:06.471Z,3.20
2018-08-31T05:31:36.239Z,3.60
2018-08-31T05:34:09.801Z,3.90
2018-08-31T05:36:39.487Z,3.10
2018-08-31T05:39:12.215Z,3.77
2018-08-31T05:41:42.669Z,3.70
2018-08-31T05:44:13.634Z,3.30
2018-08-31T05:46:42.725Z,3.07
2018-08-31T05:49:12.966Z,3.63
2018-08-31T05:51:45.897Z,3.13
2018-08-31T05:54:17.144Z,3.50
2018-08-31T05:56:47.009Z,3.20
2018-08-31T05:59:17.612Z,2.90
2018-08-31T06:01:48.576Z,3.00
2018-08-31T06:04:20.762Z,3.40
2018-08-31T06:06:50.114Z,3.40
2018-08-31T06:09:19.353Z,2.37
2018-08-31T06:11:49.686Z,3.47
2018-08-31T06:14:32.665Z,3.10
2018-08-31T06:17:02.677Z,3.17
2018-08-31T06:19:32.829Z,2.67
2018-08-31T06:22:02.617Z,3.23
2018-08-31T06:24:34.331Z,2.80
2018-08-31T06:27:04.534Z,3.10
2018-08-31T06:29:34.326Z,2.90
2018-08-31T06:32:04.882Z,2.83
2018-08-31T06:34:48.229Z,3.10
2018-08-31T06:37:18.349Z,3.00
2018-08-31T06:39:48.549Z,2.60
2018-08-31T06:42:18.834Z,2.67
2018-08-31T06:44:48.866Z,3.60
2018-08-31T06:47:18.713Z,2.90
2018-08-31T06:49:48.025Z,2.70
2018-08-31T06:52:17.953Z,2.97
2018-08-31T06:54:48.082Z,2.90
2018-08-31T06:57:17.294Z,2.83
2018-08-31T06:59:46.774Z,2.70
2018-08-31T07:02:16.978Z,2.67
2018-08-31T07:04:51.401Z,2.93
2018-08-31T07:07:20.658Z,2.53
2018-08-31T07:09:50.543Z,2.70
2018-08-31T07:12:19.972Z,2.80
2018-08-31T07:14:49.846Z,2.47
2018-08-31T07:17:19.300Z,2.90
2018-08-31T07:19:49.893Z,2.50
2018-08-31T07:22:19.062Z,2.87
2018-08-31T07:24:48.230Z,2.80
2018-08-31T07:27:18.680Z,2.53
2018-08-31T07:29:47.990Z,2.87
2018-08-31T07:32:18.466Z,2.63
2018-08-31T07:34:49.304Z,3.20
2018-08-31T07:37:17.873Z,2.90
2018-08-31T07:39:46.401Z,2.77
2018-08-31T07:42:15.968Z,2.83
2018-08-31T07:44:45.329Z,3.00
2018-08-31T07:47:20.864Z,3.00
2018-08-31T07:49:49.626Z,2.73
2018-08-31T07:52:22.524Z,2.70
2018-08-31T07:54:51.997Z,2.73
2018-08-31T07:57:31.534Z,2.40
2018-08-31T08:00:01.974Z,2.97
2018-08-31T08:02:31.091Z,2.73
2018-08-31T08:04:59.628Z,2.80
2018-08-31T08:07:28.656Z,3.00
2018-08-31T08:09:57.618Z,3.20
2018-08-31T08:12:26.882Z,2.93
2018-08-31T08:14:56.709Z,2.70
2018-08-31T08:17:26.031Z,2.73
2018-08-31T08:19:55.566Z,3.00
2018-08-31T08:22:24.622Z,2.70
2018-08-31T08:24:54.054Z,2.90
2018-08-31T08:27:25.143Z,2.80
2018-08-31T08:29:55.729Z,2.77
2018-08-31T08:32:24.713Z,2.60
2018-08-31T08:34:54.089Z,3.27
2018-08-31T08:37:23.768Z,3.07
2018-08-31T08:39:53.066Z,3.00
2018-08-31T08:42:21.583Z,2.97
2018-08-31T08:44:52.357Z,3.00
2018-08-31T08:47:48.668Z,3.27
2018-08-31T08:50:17.734Z,2.80
2018-08-31T08:52:47.904Z,2.90
2018-08-31T08:55:16.857Z,2.63
2018-08-31T09:00:51.412Z,2.80
2018-08-31T09:03:20.193Z,3.37
2018-08-31T09:05:49.293Z,2.67
2018-08-31T09:08:18.254Z,2.63
2018-08-31T09:10:50.384Z,2.60
2018-08-31T09:13:20.304Z,2.17
2018-08-31T09:15:50.238Z,2.83
2018-08-31T09:18:25.819Z,1.70
2018-08-31T09:21:02.635Z,2.67
2018-08-31T09:23:31.653Z,2.80
2018-08-31T09:26:05.139Z,2.83
2018-08-31T09:28:35.494Z,2.93
2018-08-31T09:31:18.306Z,2.80
2018-08-31T09:33:48.015Z,2.47
2018-08-31T09:36:16.617Z,2.83
2018-08-31T09:38:45.446Z,2.80
2018-08-31T09:41:37.266Z,2.63
2018-08-31T09:44:07.084Z,2.60
2018-08-31T09:46:36.069Z,2.87
2018-08-31T09:49:05.587Z,2.63
2018-08-31T09:51:50.479Z,2.83
2018-08-31T09:54:19.304Z,3.00
2018-08-31T09:56:49.846Z,2.20
2018-08-31T09:59:18.705Z,2.90
2018-08-31T10:01:49.037Z,2.60
2018-08-31T10:04:22.658Z,2.50
2018-08-31T10:06:51.764Z,2.37
2018-08-31T10:09:20.851Z,2.87
2018-08-31T10:11:52.817Z,2.67
2018-08-31T10:14:21.637Z,3.63
2018-08-31T10:16:51.701Z,2.67
2018-08-31T10:19:20.819Z,3.37
2018-08-31T10:21:50.958Z,3.50
2018-08-31T10:24:20.172Z,3.87
2018-08-31T10:26:49.521Z,4.30
2018-08-31T10:29:18.530Z,2.67
2018-08-31T10:31:47.393Z,3.37
2018-08-31T10:34:17.301Z,3.97
2018-08-31T10:36:46.097Z,3.57
2018-08-31T10:39:16.180Z,4.00
2018-08-31T10:41:46.598Z,4.10
2018-08-31T10:44:15.100Z,3.73
2018-08-31T10:46:43.650Z,3.80
2018-08-31T10:49:12.858Z,3.77
2018-08-31T10:51:42.255Z,3.10
2018-08-31T10:54:11.963Z,3.60
2018-08-31T10:56:41.494Z,3.33
2018-08-31T10:59:10.558Z,3.80
2018-08-31T11:01:39.469Z,3.33
2018-08-31T11:04:09.105Z,3.63
2018-08-31T11:06:39.517Z,3.30
2018-08-31T11:09:09.949Z,3.17
2018-08-31T11:11:38.556Z,3.53
2018-08-31T11:14:07.457Z,3.60
2018-08-31T11:16:37.611Z,3.87
2018-08-31T11:19:06.455Z,4.47
2018-08-31T11:21:36.427Z,3.63
2018-08-31T11:24:05.414Z,2.90
2018-08-31T11:26:34.173Z,3.83
2018-08-31T11:29:04.071Z,3.33
2018-08-31T11:31:32.613Z,3.93
2018-08-31T11:34:01.118Z,3.70
2018-08-31T11:36:29.709Z,3.33
2018-08-31T11:38:58.205Z,3.13
2018-08-31T11:41:27.440Z,2.80
2018-08-31T11:43:55.954Z,2.87
2018-08-31T11:46:25.078Z,2.90
2018-08-31T11:48:53.805Z,2.93
2018-08-31T11:51:23.529Z,3.40
2018-08-31T11:53:53.332Z,3.97
2018-08-31T11:56:22.333Z,4.70
2018-08-31T11:58:51.345Z,4.80
2018-08-31T12:01:19.946Z,5.00
2018-08-31T12:03:49.027Z,5.47
2018-08-31T12:06:19.887Z,5.33
2018-08-31T12:08:50.309Z,4.90
2018-08-31T12:11:18.825Z,5.20
2018-08-31T12:13:56.721Z,5.17
2018-08-31T12:16:34.164Z,5.03
2018-08-31T12:19:03.147Z,5.03
2018-08-31T12:21:31.673Z,4.43
2018-08-31T12:24:00.211Z,4.60
2018-08-31T12:26:34.125Z,4.57
2018-08-31T12:29:03.287Z,4.13
2018-08-31T12:31:32.216Z,3.77
2018-08-31T12:34:01.925Z,4.37
2018-08-31T12:36:31.063Z,3.40
2018-08-31T12:38:59.588Z,3.50
2018-08-31T12:41:28.891Z,3.70
2018-08-31T12:43:57.521Z,3.77
2018-08-31T12:46:25.955Z,3.57
2018-08-31T12:48:55.385Z,3.33
2018-08-31T12:51:24.487Z,3.57
2018-08-31T12:53:53.035Z,3.43
2018-08-31T12:56:21.925Z,3.67
2018-08-31T12:58:51.296Z,3.83
2018-08-31T13:06:45.720Z,3.30
2018-08-31T13:09:36.852Z,3.70
2018-08-31T13:12:06.194Z,3.27
2018-08-31T13:14:34.975Z,3.77
2018-08-31T13:17:03.519Z,3.63
2018-08-31T13:22:16.187Z,3.33
2018-08-31T13:24:44.727Z,4.40
2018-08-31T13:27:13.245Z,3.80
2018-08-31T13:32:56.718Z,3.57
2018-08-31T13:35:27.031Z,3.87
2018-08-31T13:37:56.588Z,2.97
2018-08-31T13:40:25.131Z,3.90
2018-08-31T13:43:02.980Z,4.10
2018-08-31T13:45:31.480Z,3.93
2018-08-31T13:48:00.333Z,3.97
2018-08-31T13:50:29.598Z,2.97
2018-08-31T13:52:58.390Z,3.83
2018-08-31T13:55:31.126Z,3.87
2018-08-31T13:58:01.383Z,4.50
2018-08-31T14:00:30.146Z,3.07
2018-08-31T14:03:07.911Z,3.93
2018-08-31T14:05:38.380Z,3.60
2018-08-31T14:08:07.213Z,3.50
2018-08-31T14:10:35.785Z,3.83
2018-08-31T14:13:04.332Z,3.40
2018-08-31T14:15:33.271Z,3.37
2018-08-31T14:18:04.015Z,3.60
2018-08-31T14:20:33.161Z,3.33
2018-08-31T14:26:30.250Z,3.60
2018-08-31T14:28:59.780Z,3.20
2018-08-31T14:31:28.708Z,3.53
2018-08-31T14:33:57.678Z,3.20
2018-08-31T14:36:29.769Z,3.03
2018-08-31T14:38:58.671Z,3.30
2018-08-31T14:41:28.558Z,3.30
2018-08-31T14:43:57.198Z,2.97
2018-08-31T14:46:44.094Z,3.60
2018-08-31T14:49:13.217Z,3.63
2018-08-31T14:51:41.936Z,2.90
2018-08-31T14:54:14.190Z,3.20
2018-08-31T14:56:58.912Z,2.70
2018-08-31T14:59:29.141Z,3.90
2018-08-31T15:01:57.742Z,3.17
2018-08-31T15:04:26.502Z,3.33
2018-08-31T15:06:55.009Z,2.90
2018-08-31T15:09:24.239Z,2.97
2018-08-31T15:11:54.069Z,2.97
2018-08-31T15:14:22.681Z,3.03
2018-08-31T15:16:51.697Z,3.00
2018-08-31T15:19:20.250Z,3.60
2018-08-31T15:21:49.499Z,3.37
2018-08-31T15:24:18.218Z,3.23
2018-08-31T15:26:48.060Z,3.20
2018-08-31T15:29:18.318Z,3.43
2018-08-31T15:31:47.626Z,3.73
2018-08-31T15:34:16.121Z,3.53
2018-08-31T15:36:45.565Z,3.47
2018-08-31T15:39:16.674Z,3.33
2018-08-31T15:41:46.689Z,3.30
2018-08-31T15:44:16.109Z,3.60
2018-08-31T15:46:46.430Z,3.57
2018-08-31T15:49:16.481Z,3.43
2018-08-31T15:51:45.906Z,3.37
2018-08-31T15:54:15.113Z,3.40
2018-08-31T15:56:44.630Z,3.70
2018-08-31T15:59:13.502Z,3.80
2018-08-31T16:01:52.548Z,3.50
2018-08-31T16:04:22.400Z,3.67
2018-08-31T16:06:51.624Z,3.07
2018-08-31T16:09:20.689Z,3.67
2018-08-31T16:12:00.715Z,4.03
2018-08-31T16:14:30.229Z,4.37
2018-08-31T16:16:59.151Z,5.00
2018-08-31T16:19:28.914Z,4.20
2018-08-31T16:21:59.671Z,4.60
2018-08-31T16:24:29.591Z,5.17
2018-08-31T16:26:59.701Z,4.67
2018-08-31T16:29:29.433Z,4.80
2018-08-31T16:32:00.306Z,5.13
2018-08-31T16:34:30.157Z,4.77
2018-08-31T16:37:00.341Z,3.67
2018-08-31T16:39:29.578Z,4.90
2018-08-31T16:42:38.083Z,4.20
2018-08-31T16:45:06.574Z,5.13
2018-08-31T16:47:35.090Z,3.77
2018-08-31T16:50:03.603Z,4.47
2018-08-31T16:52:34.071Z,4.30
2018-08-31T16:55:02.677Z,3.90
2018-08-31T16:57:31.680Z,3.53
2018-08-31T17:00:00.671Z,5.10
2018-08-31T17:02:30.587Z,4.07
2018-08-31T17:05:00.841Z,4.33
2018-08-31T17:07:31.053Z,4.40
2018-08-31T17:10:00.226Z,3.70
2018-08-31T17:12:28.801Z,3.90
2018-08-31T17:14:57.300Z,3.57
2018-08-31T17:17:26.309Z,3.77
2018-08-31T17:19:54.830Z,3.90
2018-08-31T17:22:24.161Z,3.70
2018-08-31T17:24:59.633Z,3.93
2018-08-31T17:29:35.849Z,3.20
2018-08-31T17:32:10.564Z,3.60
2018-08-31T17:34:44.542Z,3.73
2018-08-31T17:37:19.356Z,3.70
2018-08-31T17:39:50.034Z,4.20
2018-08-31T17:42:19.865Z,3.60
2018-08-31T17:44:49.824Z,3.43
2018-08-31T17:47:24.902Z,3.90
2018-08-31T17:49:53.405Z,3.20
2018-08-31T17:52:22.460Z,3.30
2018-08-31T17:54:51.401Z,3.63
2018-08-31T17:57:21.646Z,3.50
2018-08-31T17:59:50.142Z,3.63
2018-08-31T18:02:19.709Z,3.87
2018-08-31T18:04:50.826Z,3.50
2018-08-31T18:07:19.684Z,3.40
2018-08-31T18:09:58.230Z,3.50
2018-08-31T18:12:27.523Z,3.50
2018-08-31T18:14:58.151Z,3.50
2018-08-31T18:17:27.791Z,3.10
2018-08-31T18:19:58.613Z,3.20
2018-08-31T18:22:27.385Z,3.50
2018-08-31T18:24:57.690Z,2.90
2018-08-31T18:27:26.219Z,2.90
2018-08-31T18:29:56.713Z,3.37
2018-08-31T18:32:25.665Z,2.57
2018-08-31T18:34:54.694Z,2.63
2018-08-31T18:37:24.107Z,3.07
2018-08-31T18:39:52.984Z,2.77
2018-08-31T18:42:22.434Z,2.93
2018-08-31T18:44:51.825Z,2.73
2018-08-31T18:47:20.797Z,3.17
2018-08-31T18:49:50.969Z,2.43
2018-08-31T18:52:19.510Z,2.93
2018-08-31T18:54:49.262Z,2.97
2018-08-31T18:57:19.175Z,2.67
2018-08-31T18:59:48.177Z,3.00
2018-08-31T19:02:17.943Z,3.10
2018-08-31T19:04:47.245Z,2.77
2018-08-31T19:07:16.322Z,2.80
2018-08-31T19:09:45.269Z,3.00
2018-08-31T19:12:15.347Z,3.00
2018-08-31T19:14:44.313Z,2.80
2018-08-31T19:17:15.026Z,3.03
2018-08-31T19:19:46.326Z,3.00
2018-08-31T19:22:17.501Z,3.33
2018-08-31T19:24:47.961Z,2.87
2018-08-31T19:27:16.998Z,3.00
2018-08-31T19:29:46.321Z,2.77
2018-08-31T19:32:14.794Z,2.63
2018-08-31T19:34:43.314Z,2.67
2018-08-31T19:37:11.834Z,3.17
2018-08-31T19:39:41.250Z,2.90
2018-08-31T19:42:12.002Z,2.67
2018-08-31T19:44:42.583Z,3.37
2018-08-31T19:47:11.640Z,3.50
2018-08-31T19:49:40.603Z,3.20
2018-08-31T19:52:09.562Z,2.80
2018-08-31T19:54:39.562Z,3.13
2018-08-31T19:57:09.413Z,2.90
2018-08-31T19:59:38.478Z,2.70
2018-08-31T20:02:07.554Z,3.03
2018-08-31T20:04:36.942Z,2.93
2018-08-31T20:07:07.104Z,3.00
2018-08-31T20:09:36.405Z,2.67
2018-08-31T20:12:06.241Z,2.70
2018-08-31T20:14:35.654Z,3.30
2018-08-31T20:17:05.515Z,2.73
2018-08-31T20:19:34.658Z,2.90
2018-08-31T20:22:10.244Z,3.30
2018-08-31T20:24:38.882Z,2.70
2018-08-31T20:27:08.204Z,3.10
2018-08-31T20:29:38.418Z,2.80
2018-08-31T20:32:18.777Z,3.07
2018-08-31T20:34:47.521Z,2.87
2018-08-31T20:37:16.001Z,3.10
2018-08-31T20:39:45.396Z,3.30
2018-08-31T20:42:16.345Z,2.87
2018-08-31T20:44:44.870Z,2.90
2018-08-31T20:47:13.889Z,3.07
2018-08-31T20:49:42.435Z,2.90
2018-08-31T20:52:11.593Z,2.57
2018-08-31T20:54:41.621Z,2.60
2018-08-31T20:57:11.747Z,2.77
2018-08-31T20:59:41.514Z,2.93
2018-08-31T21:02:10.603Z,2.40
2018-08-31T21:04:40.338Z,2.73
2018-08-31T21:07:09.413Z,2.83
2018-08-31T21:09:38.425Z,3.07
2018-08-31T21:12:07.829Z,2.67
2018-08-31T21:14:38.145Z,3.27
2018-08-31T21:17:07.139Z,2.43
2018-08-31T21:19:35.891Z,2.43
2018-08-31T21:22:05.130Z,2.70
2018-08-31T21:24:34.919Z,2.40
2018-08-31T21:27:04.694Z,2.67
2018-08-31T21:29:35.134Z,2.80
2018-08-31T21:32:06.539Z,2.60
2018-08-31T21:34:36.241Z,2.90
2018-08-31T21:37:04.882Z,2.70
2018-08-31T21:39:33.628Z,2.47
2018-08-31T21:42:03.202Z,2.80
2018-08-31T21:44:32.576Z,2.50
2018-08-31T21:47:01.804Z,2.90
2018-08-31T21:49:31.319Z,2.53
2018-08-31T21:51:59.812Z,2.97
2018-08-31T21:54:30.887Z,2.80
2018-08-31T21:56:59.377Z,2.70
2018-08-31T21:59:27.868Z,2.77
2018-08-31T22:01:57.002Z,2.73
2018-08-31T22:04:25.800Z,2.90
2018-08-31T22:06:55.225Z,3.30
2018-08-31T22:09:25.513Z,3.07
2018-08-31T22:11:56.017Z,2.90
2018-08-31T22:14:25.243Z,2.50
2018-08-31T22:16:54.517Z,2.50
2018-08-31T22:19:23.709Z,3.00
2018-08-31T22:21:57.767Z,2.90
2018-08-31T22:24:28.115Z,2.60
2018-08-31T22:26:57.523Z,2.70
2018-08-31T22:29:26.269Z,2.20
2018-08-31T22:31:55.063Z,2.83
2018-08-31T22:34:23.607Z,2.57
2018-08-31T22:36:56.270Z,2.50
2018-08-31T22:39:25.305Z,2.57
2018-08-31T22:41:55.271Z,2.67
2018-08-31T22:44:23.748Z,2.57
2018-08-31T22:46:52.594Z,2.73
2018-08-31T22:49:21.665Z,2.40
2018-08-31T22:51:50.390Z,2.53
2018-08-31T22:54:20.013Z,2.57
2018-08-31T22:56:50.269Z,2.70
2018-08-31T22:59:19.557Z,2.37
2018-08-31T23:01:48.813Z,2.47
2018-08-31T23:04:17.960Z,2.80
2018-08-31T23:06:48.056Z,2.67
2018-08-31T23:09:18.365Z,2.47
2018-08-31T23:11:46.863Z,2.77
2018-08-31T23:14:18.146Z,2.10
2018-08-31T23:16:47.169Z,2.57
2018-08-31T23:19:16.111Z,2.40
2018-08-31T23:21:44.621Z,2.30
2018-08-31T23:24:13.101Z,2.53
2018-08-31T23:26:41.663Z,2.40
2018-08-31T23:29:10.174Z,2.47
2018-08-31T23:31:38.689Z,2.50
2018-08-31T23:34:07.233Z,2.77
2018-08-31T23:36:37.272Z,2.53
2018-08-31T23:39:07.781Z,2.57
2018-08-31T23:41:37.718Z,2.43
2018-08-31T23:44:06.647Z,2.43
2018-08-31T23:46:35.790Z,2.20
2018-08-31T23:49:04.970Z,2.80
2018-08-31T23:51:34.348Z,2.47
2018-08-31T23:54:03.791Z,2.20
2018-08-31T23:56:33.167Z,2.87
2018-08-31T23:59:03.416Z,2.50
